createdAt,value
2022-10-20T00:01:52.907Z,100.00
2022-10-20T00:04:59.225Z,100.00
2022-10-20T00:08:05.708Z,100.00
2022-10-20T00:11:12.964Z,100.00
2022-10-20T00:14:20.387Z,100.00
2022-10-20T00:17:26.424Z,100.00
2022-10-20T00:20:32.613Z,100.00
2022-10-20T00:23:38.781Z,100.00
2022-10-20T00:26:44.911Z,100.00
2022-10-20T00:29:52.700Z,100.00
2022-10-20T00:32:58.907Z,100.00
2022-10-20T00:36:08.052Z,100.00
2022-10-20T00:39:14.170Z,100.00
2022-10-20T00:42:21.174Z,100.00
2022-10-20T00:45:28.987Z,100.00
2022-10-20T00:48:36.359Z,100.00
2022-10-20T00:51:44.101Z,100.00
2022-10-20T00:54:51.110Z,100.00
2022-10-20T00:58:00.109Z,100.00
2022-10-20T01:01:08.270Z,100.00
2022-10-20T01:04:14.508Z,100.00
2022-10-20T01:07:20.763Z,100.00
2022-10-20T01:10:32.902Z,100.00
2022-10-20T01:13:47.132Z,100.00
2022-10-20T01:17:04.574Z,100.00
2022-10-20T01:20:52.499Z,100.00
2022-10-20T01:24:37.200Z,100.00
2022-10-20T01:27:46.730Z,100.00
2022-10-20T01:31:00.338Z,100.00
2022-10-20T01:34:12.907Z,100.00
2022-10-20T01:37:47.617Z,100.00
2022-10-20T01:41:00.406Z,100.00
2022-10-20T01:44:12.239Z,100.00
2022-10-20T01:47:19.759Z,100.00
2022-10-20T01:50:26.958Z,100.00
2022-10-20T01:53:33.062Z,100.00
2022-10-20T01:56:47.983Z,100.00
2022-10-20T02:00:05.830Z,100.00
2022-10-20T02:03:33.364Z,100.00
2022-10-20T02:06:45.683Z,100.00
2022-10-20T02:09:57.435Z,100.00
2022-10-20T02:13:07.113Z,100.00
2022-10-20T02:16:20.663Z,100.00
2022-10-20T02:19:30.472Z,100.00
2022-10-20T02:22:37.654Z,100.00
2022-10-20T02:25:44.386Z,100.00
2022-10-20T02:28:54.591Z,100.00
2022-10-20T02:32:02.458Z,100.00
2022-10-20T02:35:12.231Z,100.00
2022-10-20T02:38:18.431Z,100.00
2022-10-20T02:41:24.771Z,100.00
2022-10-20T02:44:30.983Z,100.00
2022-10-20T02:47:39.120Z,100.00
2022-10-20T02:50:45.670Z,100.00
2022-10-20T02:53:51.995Z,100.00
2022-10-20T02:56:58.193Z,100.00
2022-10-20T03:00:05.630Z,100.00
2022-10-20T03:03:13.386Z,100.00
2022-10-20T03:06:19.447Z,100.00
2022-10-20T03:09:25.743Z,100.00
2022-10-20T03:12:32.377Z,100.00
2022-10-20T03:15:39.111Z,100.00
2022-10-20T03:18:46.867Z,100.00
2022-10-20T03:21:53.304Z,100.00
2022-10-20T03:24:59.311Z,100.00
2022-10-20T03:28:05.936Z,100.00
2022-10-20T03:31:12.100Z,100.00
2022-10-20T03:34:19.668Z,100.00
2022-10-20T03:37:25.683Z,100.00
2022-10-20T03:40:31.599Z,100.00
2022-10-20T03:43:37.587Z,100.00
2022-10-20T03:46:44.004Z,100.00
2022-10-20T03:49:51.675Z,100.00
2022-10-20T03:52:57.949Z,100.00
2022-10-20T03:56:07.386Z,100.00
2022-10-20T03:59:13.416Z,100.00
2022-10-20T04:02:33.461Z,100.00
2022-10-20T04:05:41.681Z,100.00
2022-10-20T04:08:47.821Z,100.00
2022-10-20T04:11:53.876Z,100.00
2022-10-20T04:15:00.613Z,100.00
2022-10-20T04:18:06.871Z,100.00
2022-10-20T04:21:14.495Z,100.00
2022-10-20T04:24:22.572Z,100.00
2022-10-20T04:27:29.956Z,100.00
2022-10-20T04:30:40.439Z,100.00
2022-10-20T04:33:49.673Z,100.00
2022-10-20T04:36:57.508Z,100.00
2022-10-20T04:40:04.874Z,100.00
2022-10-20T04:43:10.859Z,100.00
2022-10-20T04:46:17.081Z,100.00
2022-10-20T04:49:23.565Z,100.00
2022-10-20T04:52:31.530Z,100.00
2022-10-20T04:55:37.888Z,100.00
2022-10-20T04:58:44.391Z,100.00
2022-10-20T05:01:50.709Z,100.00
2022-10-20T05:04:56.695Z,100.00
2022-10-20T05:08:04.303Z,100.00
2022-10-20T05:11:11.194Z,100.00
2022-10-20T05:14:17.351Z,100.00
2022-10-20T05:17:23.594Z,100.00
2022-10-20T05:20:36.731Z,100.00
2022-10-20T05:23:58.994Z,100.00
2022-10-20T05:27:05.131Z,100.00
2022-10-20T05:30:12.402Z,100.00
2022-10-20T05:33:18.597Z,100.00
2022-10-20T05:36:26.839Z,100.00
2022-10-20T05:39:34.428Z,100.00
2022-10-20T05:42:40.378Z,100.00
2022-10-20T05:45:46.448Z,100.00
2022-10-20T05:48:54.584Z,100.00
2022-10-20T05:52:00.910Z,100.00
2022-10-20T05:55:10.343Z,100.00
2022-10-20T05:58:19.540Z,100.00
2022-10-20T06:01:39.510Z,100.00
2022-10-20T06:04:45.813Z,98.13
2022-10-20T06:07:54.115Z,100.00
2022-10-20T06:11:06.164Z,97.98
2022-10-20T06:14:12.170Z,96.77
2022-10-20T06:17:18.436Z,95.28
2022-10-20T06:20:25.007Z,96.02
2022-10-20T06:23:31.183Z,95.01
2022-10-20T06:26:40.471Z,94.44
2022-10-20T06:29:46.883Z,93.08
2022-10-20T06:32:55.605Z,94.24
2022-10-20T06:36:02.179Z,92.88
2022-10-20T06:39:10.164Z,90.65
2022-10-20T06:42:17.691Z,93.15
2022-10-20T06:45:23.746Z,89.14
2022-10-20T06:48:29.803Z,87.52
2022-10-20T06:51:36.549Z,89.57
2022-10-20T06:54:42.530Z,88.93
2022-10-20T06:57:50.386Z,90.06
2022-10-20T07:01:01.962Z,88.38
2022-10-20T07:04:14.960Z,85.53
2022-10-20T07:07:21.124Z,88.61
2022-10-20T07:10:27.519Z,88.84
2022-10-20T07:13:36.414Z,86.51
2022-10-20T07:16:43.178Z,86.24
2022-10-20T07:19:49.074Z,88.22
2022-10-20T07:22:55.149Z,84.69
2022-10-20T07:26:02.670Z,82.22
2022-10-20T07:29:11.384Z,86.75
2022-10-20T07:32:17.498Z,86.57
2022-10-20T07:35:23.496Z,84.24
2022-10-20T07:38:29.626Z,82.28
2022-10-20T07:41:39.685Z,82.50
2022-10-20T07:44:47.302Z,80.16
2022-10-20T07:47:53.245Z,78.29
2022-10-20T07:51:15.676Z,80.94
2022-10-20T07:54:21.789Z,78.32
2022-10-20T07:57:27.987Z,77.58
2022-10-20T08:00:35.732Z,77.61
2022-10-20T08:03:42.123Z,76.82
2022-10-20T08:06:48.492Z,75.00
2022-10-20T08:09:54.881Z,71.86
2022-10-20T08:13:01.155Z,72.26
2022-10-20T08:16:10.368Z,72.54
2022-10-20T08:22:37.382Z,70.35
2022-10-20T08:25:43.664Z,69.50
2022-10-20T08:28:50.612Z,68.31
2022-10-20T08:31:57.918Z,66.03
2022-10-20T08:35:03.863Z,66.60
2022-10-20T08:38:09.926Z,64.91
2022-10-20T08:41:20.515Z,63.58
2022-10-20T08:44:29.245Z,62.97
2022-10-20T08:47:39.656Z,59.87
2022-10-20T08:50:49.489Z,58.18
2022-10-20T08:53:59.056Z,57.60
2022-10-20T08:57:16.329Z,58.17
2022-10-20T09:00:24.880Z,58.65
2022-10-20T09:03:34.890Z,59.51
2022-10-20T09:06:45.055Z,59.22
2022-10-20T09:09:51.574Z,59.03
2022-10-20T09:12:58.515Z,59.80
2022-10-20T09:16:08.141Z,60.33
2022-10-20T09:19:19.860Z,60.34
2022-10-20T09:22:34.767Z,59.61
2022-10-20T09:25:44.558Z,57.92
2022-10-20T09:29:12.099Z,57.37
2022-10-20T09:35:51.960Z,56.91
2022-10-20T09:38:59.029Z,57.40
2022-10-20T09:42:08.420Z,58.24
2022-10-20T09:45:22.203Z,51.45
2022-10-20T09:48:33.009Z,53.37
2022-10-20T09:51:49.150Z,53.57
2022-10-20T09:55:01.919Z,52.55
2022-10-20T09:58:17.198Z,50.68
2022-10-20T10:01:24.365Z,47.83
2022-10-20T10:04:34.923Z,48.30
2022-10-20T10:07:42.479Z,47.64
2022-10-20T10:11:00.785Z,48.36
2022-10-20T10:14:07.371Z,45.90
2022-10-20T10:17:13.959Z,47.32
2022-10-20T10:20:33.380Z,48.41
2022-10-20T10:23:52.544Z,47.52
2022-10-20T10:26:58.663Z,47.91
2022-10-20T10:30:28.995Z,48.03
2022-10-20T10:33:35.003Z,47.91
2022-10-20T10:36:41.315Z,47.01
2022-10-20T10:39:48.788Z,46.85
2022-10-20T10:43:07.907Z,47.15
2022-10-20T10:46:18.570Z,46.18
2022-10-20T10:49:53.799Z,46.00
2022-10-20T10:53:14.699Z,45.49
2022-10-20T10:56:29.814Z,46.10
2022-10-20T10:59:41.685Z,44.27
2022-10-20T11:03:01.590Z,45.45
2022-10-20T11:06:17.762Z,45.33
2022-10-20T11:09:33.023Z,46.29
2022-10-20T11:13:03.632Z,45.63
2022-10-20T11:16:22.708Z,46.44
2022-10-20T11:19:44.908Z,44.97
2022-10-20T11:23:07.997Z,43.97
2022-10-20T11:26:26.782Z,43.38
2022-10-20T11:29:43.206Z,42.66
2022-10-20T11:32:54.945Z,43.00
2022-10-20T11:36:05.868Z,42.44
2022-10-20T11:39:19.371Z,42.82
2022-10-20T11:42:32.345Z,42.93
2022-10-20T11:45:46.596Z,43.71
2022-10-20T11:48:54.631Z,43.25
2022-10-20T11:52:18.776Z,42.20
2022-10-20T11:55:37.271Z,42.54
2022-10-20T11:59:09.775Z,41.80
2022-10-20T12:02:46.289Z,41.75
2022-10-20T12:06:24.533Z,42.71
2022-10-20T12:09:54.131Z,43.81
2022-10-20T12:13:08.730Z,42.86
2022-10-20T12:16:54.062Z,43.97
2022-10-20T12:20:42.236Z,42.31
2022-10-20T12:24:05.795Z,43.62
2022-10-20T12:27:21.749Z,43.03
2022-10-20T12:30:45.502Z,44.30
2022-10-20T12:34:03.904Z,44.62
2022-10-20T12:37:18.133Z,45.47
2022-10-20T12:40:32.799Z,44.44
2022-10-20T12:43:52.347Z,44.30
2022-10-20T12:47:04.717Z,44.35
2022-10-20T12:50:33.524Z,45.20
2022-10-20T12:53:41.156Z,43.86
2022-10-20T12:56:48.873Z,44.23
2022-10-20T12:59:55.055Z,44.39
2022-10-20T13:03:01.179Z,44.56
2022-10-20T13:06:40.097Z,44.47
2022-10-20T13:10:00.284Z,43.92
2022-10-20T13:13:43.660Z,43.96
2022-10-20T13:16:53.205Z,43.96
2022-10-20T13:20:04.047Z,44.55
2022-10-20T13:23:14.092Z,43.74
2022-10-20T13:26:24.751Z,42.82
2022-10-20T13:29:38.047Z,42.99
2022-10-20T13:33:11.077Z,43.37
2022-10-20T13:36:30.682Z,42.59
2022-10-20T13:39:46.172Z,43.03
2022-10-20T13:43:09.247Z,43.57
2022-10-20T13:46:32.785Z,43.06
2022-10-20T13:49:54.933Z,44.04
2022-10-20T13:53:04.464Z,43.92
2022-10-20T13:56:22.689Z,45.58
2022-10-20T13:59:30.750Z,45.82
2022-10-20T14:02:38.675Z,45.57
2022-10-20T14:05:45.108Z,45.02
2022-10-20T14:12:05.034Z,45.09
2022-10-20T14:15:14.975Z,44.70
2022-10-20T14:18:26.060Z,45.00
2022-10-20T14:21:40.910Z,44.93
2022-10-20T14:24:49.628Z,46.72
2022-10-20T14:27:57.172Z,47.74
2022-10-20T14:31:04.341Z,48.01
2022-10-20T14:34:22.412Z,48.85
2022-10-20T14:37:33.029Z,49.24
2022-10-20T14:40:39.592Z,49.33
2022-10-20T14:43:48.687Z,49.20
2022-10-20T14:46:57.906Z,49.11
2022-10-20T14:50:07.474Z,49.32
2022-10-20T14:53:31.339Z,48.75
2022-10-20T14:56:45.223Z,49.48
2022-10-20T14:59:53.864Z,49.94
2022-10-20T15:03:03.202Z,49.75
2022-10-20T15:06:15.239Z,49.72
2022-10-20T15:09:31.062Z,50.31
2022-10-20T15:12:43.019Z,50.82
2022-10-20T15:15:49.758Z,50.31
2022-10-20T15:19:14.378Z,49.41
2022-10-20T15:22:21.891Z,49.91
2022-10-20T15:25:29.752Z,49.74
2022-10-20T15:28:38.977Z,49.66
2022-10-20T15:31:45.380Z,49.77
2022-10-20T15:34:51.731Z,50.61
2022-10-20T15:37:59.301Z,49.50
2022-10-20T15:41:05.560Z,49.71
2022-10-20T15:44:16.993Z,49.78
2022-10-20T15:47:23.535Z,49.79
2022-10-20T15:50:29.939Z,50.61
2022-10-20T15:53:37.317Z,52.29
2022-10-20T15:56:43.436Z,53.11
2022-10-20T15:59:49.576Z,53.05
2022-10-20T16:02:56.298Z,55.18
2022-10-20T16:06:02.144Z,55.61
2022-10-20T16:09:11.945Z,54.56
2022-10-20T16:12:20.978Z,53.00
2022-10-20T16:15:30.275Z,54.51
2022-10-20T16:18:37.490Z,56.49
2022-10-20T16:21:43.810Z,59.21
2022-10-20T16:24:51.395Z,61.84
2022-10-20T16:27:57.769Z,64.33
2022-10-20T16:31:06.454Z,67.71
2022-10-20T16:34:12.676Z,68.73
2022-10-20T16:37:19.285Z,70.27
2022-10-20T16:40:26.679Z,73.46
2022-10-20T16:43:32.983Z,70.10
2022-10-20T16:46:39.331Z,69.87
2022-10-20T16:49:45.484Z,70.25
2022-10-20T16:52:51.787Z,73.14
2022-10-20T16:55:59.589Z,74.46
2022-10-20T16:59:05.768Z,75.75
2022-10-20T17:02:13.429Z,76.41
2022-10-20T17:05:26.397Z,76.46
2022-10-20T17:08:32.934Z,79.53
2022-10-20T17:11:40.371Z,79.68
2022-10-20T17:14:46.298Z,80.63
2022-10-20T17:17:52.687Z,81.63
2022-10-20T17:20:58.967Z,82.92
2022-10-20T17:24:05.822Z,86.13
2022-10-20T17:27:13.386Z,82.21
2022-10-20T17:30:19.408Z,82.35
2022-10-20T17:33:27.151Z,84.35
2022-10-20T17:36:33.952Z,84.32
2022-10-20T17:39:39.979Z,86.32
2022-10-20T17:42:47.727Z,87.87
2022-10-20T17:45:57.862Z,87.69
2022-10-20T17:49:03.958Z,88.03
2022-10-20T17:52:10.324Z,88.08
2022-10-20T17:55:16.876Z,89.37
2022-10-20T17:58:24.511Z,88.74
2022-10-20T18:01:32.847Z,88.54
2022-10-20T18:04:38.955Z,91.22
2022-10-20T18:07:46.093Z,93.93
2022-10-20T18:10:52.551Z,92.37
2022-10-20T18:14:01.408Z,92.59
2022-10-20T18:17:07.722Z,93.87
2022-10-20T18:20:14.267Z,93.24
2022-10-20T18:23:20.504Z,92.67
2022-10-20T18:26:27.079Z,91.59
2022-10-20T18:29:34.840Z,93.61
2022-10-20T18:32:40.869Z,94.38
2022-10-20T18:35:46.700Z,93.42
2022-10-20T18:38:53.644Z,95.07
2022-10-20T18:41:59.798Z,95.12
2022-10-20T18:45:08.303Z,94.12
2022-10-20T18:48:14.653Z,93.61
2022-10-20T18:51:21.165Z,99.33
2022-10-20T18:54:28.321Z,100.00
2022-10-20T18:57:39.372Z,100.00
2022-10-20T19:00:47.104Z,100.00
2022-10-20T19:03:55.580Z,100.00
2022-10-20T19:07:01.900Z,100.00
2022-10-20T19:10:08.799Z,100.00
2022-10-20T19:13:14.956Z,100.00
2022-10-20T19:16:25.106Z,100.00
2022-10-20T19:19:31.179Z,100.00
2022-10-20T19:22:39.598Z,97.54
2022-10-20T19:25:45.856Z,96.56
2022-10-20T19:28:58.613Z,96.96
2022-10-20T19:32:07.693Z,100.00
2022-10-20T19:35:16.474Z,100.00
2022-10-20T19:38:22.701Z,100.00
2022-10-20T19:41:29.376Z,100.00
2022-10-20T19:44:36.400Z,100.00
2022-10-20T19:47:44.075Z,100.00
2022-10-20T19:50:50.311Z,100.00
2022-10-20T19:53:56.307Z,100.00
2022-10-20T19:57:02.496Z,100.00
2022-10-20T20:00:09.615Z,100.00
2022-10-20T20:03:17.633Z,100.00
2022-10-20T20:06:24.854Z,100.00
2022-10-20T20:09:31.753Z,100.00
2022-10-20T20:12:39.815Z,100.00
2022-10-20T20:15:46.087Z,100.00
2022-10-20T20:18:53.788Z,100.00
2022-10-20T20:22:00.008Z,100.00
2022-10-20T20:25:06.968Z,100.00
2022-10-20T20:28:13.723Z,100.00
2022-10-20T20:31:20.240Z,100.00
2022-10-20T20:34:27.960Z,100.00
2022-10-20T20:37:35.873Z,100.00
2022-10-20T20:40:46.623Z,100.00
2022-10-20T20:43:52.591Z,100.00
2022-10-20T20:46:58.744Z,100.00
2022-10-20T20:50:07.748Z,100.00
2022-10-20T20:53:13.861Z,100.00
2022-10-20T20:56:21.920Z,100.00
2022-10-20T20:59:30.551Z,100.00
2022-10-20T21:02:36.735Z,100.00
2022-10-20T21:05:44.629Z,100.00
2022-10-20T21:08:53.627Z,100.00
2022-10-20T21:11:59.668Z,100.00
2022-10-20T21:15:06.309Z,100.00
2022-10-20T21:18:12.447Z,100.00
2022-10-20T21:21:22.020Z,100.00
2022-10-20T21:24:28.607Z,100.00
2022-10-20T21:27:34.955Z,100.00
2022-10-20T21:30:41.469Z,100.00
2022-10-20T21:33:51.285Z,100.00
2022-10-20T21:36:58.810Z,100.00
2022-10-20T21:40:05.512Z,100.00
2022-10-20T21:43:14.172Z,100.00
2022-10-20T21:46:22.355Z,100.00
2022-10-20T21:49:28.432Z,100.00
2022-10-20T21:52:39.161Z,100.00
2022-10-20T21:55:45.376Z,100.00
2022-10-20T21:58:51.450Z,100.00
2022-10-20T22:01:59.459Z,100.00
2022-10-20T22:05:05.989Z,100.00
2022-10-20T22:08:13.747Z,100.00
2022-10-20T22:11:22.613Z,100.00
2022-10-20T22:14:30.669Z,100.00
2022-10-20T22:17:37.003Z,100.00
2022-10-20T22:20:43.075Z,100.00
2022-10-20T22:23:56.099Z,100.00
2022-10-20T22:27:02.161Z,100.00
2022-10-20T22:30:09.662Z,100.00
2022-10-20T22:33:15.654Z,100.00
2022-10-20T22:36:22.378Z,100.00
2022-10-20T22:39:29.630Z,100.00
2022-10-20T22:42:35.554Z,100.00
2022-10-20T22:45:41.697Z,100.00
2022-10-20T22:48:48.230Z,100.00
2022-10-20T22:51:54.404Z,100.00
2022-10-20T22:55:02.211Z,100.00
2022-10-20T22:58:08.517Z,100.00
2022-10-20T23:01:18.156Z,100.00
2022-10-20T23:04:24.199Z,100.00
2022-10-20T23:07:30.681Z,100.00
2022-10-20T23:10:38.368Z,100.00
2022-10-20T23:13:44.811Z,100.00
2022-10-20T23:16:51.029Z,100.00
2022-10-20T23:19:57.383Z,100.00
2022-10-20T23:23:03.830Z,100.00
2022-10-20T23:26:12.898Z,100.00
2022-10-20T23:29:18.999Z,100.00
2022-10-20T23:32:25.429Z,100.00
2022-10-20T23:35:31.677Z,100.00
2022-10-20T23:38:37.904Z,100.00
2022-10-20T23:41:45.335Z,100.00
2022-10-20T23:44:51.321Z,100.00
2022-10-20T23:47:57.587Z,100.00
2022-10-20T23:51:04.142Z,100.00
2022-10-20T23:54:10.510Z,100.00
2022-10-20T23:57:18.410Z,100.00
